Data for 10/02/2009

Time Sea-Level Adjusted Pressure Absolute Pressure Temperature Relative Humidity Dew Point   
(mb) (inHg) (mb) (inHg) (C) (F) (%) (C) (F)
00:05 1022 30.18 851 25.13 4 39.2 59 -3.3 26.1
00:10 1022 30.18 851 25.13 4 39.2 58 -3.4 25.9
00:15 1022 30.18 851 25.13 3.9 39.1 58 -3.6 25.5
00:20 1022 30.18 851 25.13 4 39.2 57 -3.7 25.4
00:25 1022 30.18 851 25.13 4.1 39.4 55 -4.1 24.6
00:30 1022 30.18 851 25.13 4.2 39.6 54 -4.2 24.4
00:35 1022 30.18 851 25.13 4.2 39.6 54 -4.2 24.5
00:40 1022 30.18 851 25.13 4.2 39.6 55 -4.1 24.6
00:45 1022 30.18 851 25.13 4.3 39.7 55 -4 24.9
00:50 1022 30.18 851 25.13 4.2 39.6 55 -4 24.7
00:55 1022 30.18 851 25.13 4.2 39.5 55 -4.1 24.6
01:00 1022 30.18 851 25.13 4.1 39.5 56 -3.9 24.9
01:05 1022 30.18 851 25.13 4 39.3 56 -4 24.8
01:10 1022 30.18 851 25.13 3.9 39 59 -3.3 26
01:15 1022 30.18 851 25.13 3.8 38.8 57 -3.9 25
01:20 1022 30.18 851 25.13 3.8 38.9 56 -4.1 24.6
01:25 1022 30.18 851 25.13 3.9 39.1 56 -4 24.8
01:30 1022 30.18 851 25.13 3.8 38.9 58 -3.6 25.5
01:35 1022 30.18 851 25.13 3.7 38.6 58 -3.9 25.1
01:40 1022 30.18 851 25.13 3.7 38.7 57 -3.9 24.9
01:45 1022 30.18 851 25.13 3.7 38.7 57 -4 24.7
01:50 1022 30.18 851 25.13 3.6 38.4 60 -3.4 25.9
01:55 1022 30.18 851 25.13 3.2 37.7 62 -3.3 26
02:00 1022 30.18 851 25.13 3 37.4 63 -3.3 26.1
02:05 1022 30.18 851 25.13 2.8 37 64 -3.4 25.9
02:10 1022 30.18 851 25.13 2.8 37 63 -3.6 25.6
02:15 1022 30.18 851 25.13 2.8 37.1 64 -3.2 26.2
02:20 1022 30.18 851 25.13 2.7 36.8 64 -3.5 25.7
02:25 1022 30.18 851 25.13 2.4 36.3 68 -3 26.6
02:30 1022 30.18 851 25.13 1.9 35.4 70 -3 26.6
02:35 1022 30.18 851 25.13 1.8 35.3 70 -3 26.6
02:40 1022 30.18 851 25.13 1.8 35.3 70 -3 26.6
02:45 1022 30.18 851 25.13 1.8 35.2 71 -2.9 26.8
02:50 1022 30.18 851 25.13 1.7 35.1 71 -3 26.6
02:55 1022 30.18 851 25.13 1.7 35 71 -3 26.6
03:00 1022 30.18 851 25.13 1.8 35.3 71 -2.9 26.7
03:05 1022 30.18 851 25.13 1.9 35.5 68 -3.3 26.1
03:10 1022 30.18 851 25.13 2.1 35.8 69 -2.9 26.7
03:15 1022 30.18 851 25.13 2.1 35.7 68 -3.2 26.2
03:20 1022 30.18 851 25.13 2.2 35.9 69 -2.8 26.9
03:25 1022 30.18 851 25.13 2.1 35.8 69 -3.1 26.4
03:30 1021 30.15 851 25.13 2 35.7 67 -3.5 25.7
03:35 1021 30.15 851 25.13 1.9 35.5 69 -3.2 26.2
03:40 1021 30.15 851 25.13 1.9 35.3 68 -3.4 25.9
03:45 1021 30.15 851 25.13 1.9 35.3 68 -3.5 25.7
03:50 1021 30.15 851 25.13 1.9 35.3 66 -3.8 25.2
03:55 1021 30.15 851 25.13 1.7 35.1 67 -3.7 25.4
04:00 1021 30.15 851 25.13 1.7 35.1 67 -3.8 25.1
04:05 1021 30.15 851 25.13 1.7 35 70 -3.3 26.1
04:10 1021 30.15 851 25.13 1.3 34.3 74 -2.9 26.8
04:15 1021 30.15 851 25.13 1 33.8 74 -3.1 26.4
04:20 1021 30.15 851 25.13 1 33.7 73 -3.3 26.1
04:25 1021 30.15 851 25.13 1 33.9 70 -3.8 25.2
04:30 1021 30.15 851 25.13 1.2 34.1 72 -3.3 26.1
04:35 1021 30.15 851 25.13 1.1 34 69 -4 24.8
04:40 1021 30.15 851 25.13 1.4 34.6 67 -4.1 24.6
04:45 1021 30.15 850 25.1 1.4 34.5 68 -3.9 25
04:50 1021 30.15 850 25.1 1.3 34.3 67 -4.1 24.6
04:55 1021 30.15 851 25.13 1.3 34.3 67 -4.1 24.6
05:00 1021 30.15 851 25.13 1.3 34.4 67 -4.2 24.4
05:05 1021 30.15 851 25.13 1.4 34.6 69 -3.5 25.6
05:10 1021 30.15 851 25.13 1.3 34.4 70 -3.7 25.4
05:15 1021 30.15 851 25.13 1.1 33.9 72 -3.3 26
05:20 1021 30.15 851 25.13 0.9 33.7 72 -3.6 25.6
05:25 1021 30.15 851 25.13 0.9 33.7 73 -3.4 25.8
05:30 1021 30.15 851 25.13 0.7 33.3 76 -3.1 26.4
05:35 1021 30.15 851 25.13 0.2 32.4 78 -3.2 26.3
05:40 1021 30.15 851 25.13 0.2 32.3 77 -3.4 25.9
05:45 1021 30.15 850 25.1 0.3 32.5 76 -3.4 26
05:50 1021 30.15 850 25.1 0.4 32.7 76 -3.5 25.8
05:55 1021 30.15 850 25.1 0.2 32.4 77 -3.4 25.9
06:00 1021 30.15 851 25.13 0.3 32.5 74 -3.7 25.3
06:05 1021 30.15 851 25.13 0.4 32.7 75 -3.5 25.7
06:10 1021 30.15 850 25.1 0.2 32.3 75 -3.7 25.3
06:15 1021 30.15 850 25.1 0.1 32.1 76 -3.6 25.5
06:20 1021 30.15 850 25.1 -0.2 31.7 78 -3.6 25.6
06:25 1021 30.15 850 25.1 -0.3 31.4 77 -3.9 25
06:30 1021 30.15 850 25.1 -0.2 31.7 76 -4 24.9
06:35 1021 30.15 850 25.1 -0.2 31.6 76 -3.9 24.9
06:40 1021 30.15 850 25.1 -0.2 31.7 76 -3.8 25.1
06:45 1021 30.15 850 25.1 -0.3 31.5 76 -4.1 24.6
06:50 1021 30.15 850 25.1 -0.3 31.4 77 -4 24.9
06:55 1021 30.15 850 25.1 -0.5 31 78 -4 24.9
07:00 1021 30.15 850 25.1 -0.5 31 78 -4 24.8
07:05 1021 30.15 850 25.1 -0.3 31.5 75 -4.2 24.4
07:10 1021 30.15 850 25.1 -0.2 31.6 76 -3.9 24.9
07:15 1021 30.15 850 25.1 -0.8 30.6 79 -3.9 25
07:20 1021 30.15 850 25.1 -1.2 29.8 82 -4 24.9
07:25 1021 30.15 850 25.1 -1.7 29 83 -4.2 24.4
07:30 1021 30.15 850 25.1 -1.6 29.2 81 -4.5 24
07:35 1021 30.15 850 25.1 -1.4 29.5 79 -4.5 23.8
07:40 1021 30.15 850 25.1 -1.1 30.1 77 -4.5 23.8
07:45 1021 30.15 850 25.1 -0.9 30.4 77 -4.4 24.1
07:50 1021 30.15 850 25.1 -0.8 30.5 77 -4.4 24
07:55 1021 30.15 850 25.1 -0.7 30.8 76 -4.4 24.1
08:00 1021 30.15 850 25.1 -0.7 30.8 77 -4.2 24.4
08:05 1021 30.15 850 25.1 -0.6 30.9 76 -4.2 24.4
08:10 1021 30.15 850 25.1 -0.4 31.3 76 -4.2 24.5
08:15 1021 30.15 850 25.1 -0.1 31.8 73 -4.4 24.2
08:20 1021 30.15 850 25.1 0.3 32.5 71 -4.4 24.1
08:25 1021 30.15 850 25.1 0.2 32.4 74 -3.9 24.9
08:30 1021 30.15 850 25.1 0.6 33 72 -4 24.9
08:35 1021 30.15 850 25.1 1.1 34 68 -4.1 24.7
08:40 1021 30.15 850 25.1 1.4 34.6 69 -3.6 25.5
08:45 1021 30.15 850 25.1 1.6 34.8 69 -3.6 25.5
08:50 1021 30.15 850 25.1 1.8 35.2 65 -4 24.8
08:55 1021 30.15 850 25.1 2.4 36.3 64 -3.8 25.1
09:00 1021 30.15 850 25.1 2.5 36.6 65 -3.4 25.8
09:05 1021 30.15 850 25.1 2.4 36.4 65 -3.6 25.6
09:10 1021 30.15 850 25.1 2.9 37.3 61 -3.8 25.2
09:15 1021 30.15 850 25.1 3.1 37.7 61 -3.6 25.5
09:20 1021 30.15 850 25.1 3.3 37.9 60 -3.7 25.4
09:25 1021 30.15 850 25.1 3.3 38 60 -3.7 25.4
09:30 1021 30.15 850 25.1 3.7 38.6 57 -4 24.9
09:35 1021 30.15 850 25.1 4.4 39.9 55 -3.9 25
09:40 1021 30.15 850 25.1 4.9 40.8 54 -3.7 25.3
09:45 1021 30.15 850 25.1 5.5 41.9 50 -4 24.8
09:50 1021 30.15 850 25.1 6.2 43.1 47 -4.2 24.4
09:55 1021 30.15 850 25.1 5.8 42.4 49 -4 24.7
10:00 1021 30.15 850 25.1 5.9 42.7 47 -4.4 24.1
10:05 1021 30.15 850 25.1 6.6 43.8 47 -4 24.8
10:10 1021 30.15 850 25.1 7.3 45.2 44 -4.2 24.4
10:15 1021 30.15 850 25.1 7.5 45.5 43 -4.4 24.1
10:20 1021 30.15 850 25.1 6.9 44.3 42 -5.1 22.8
10:25 1021 30.15 850 25.1 7 44.6 40 -5.8 21.6
10:30 1021 30.15 850 25.1 7.5 45.4 41 -5.1 22.9
10:35 1020 30.12 850 25.1 7 44.6 40 -5.5 22
10:40 1020 30.12 850 25.1 6.5 43.8 42 -5.5 22.1
10:45 1020 30.12 850 25.1 6.5 43.7 42 -5.6 21.9
10:50 1020 30.12 850 25.1 6.8 44.3 40 -5.8 21.6
10:55 1020 30.12 850 25.1 7.7 45.8 38 -5.8 21.5
11:00 1020 30.12 849 25.07 7.3 45.2 38 -6.1 21
11:05 1020 30.12 849 25.07 7.1 44.7 38 -6.3 20.7
11:10 1020 30.12 849 25.07 7.9 46.2 39 -5.4 22.4
11:15 1020 30.12 849 25.07 7.9 46.2 37 -5.9 21.5
11:20 1020 30.12 849 25.07 7.6 45.6 41 -4.9 23.2
11:25 1020 30.12 849 25.07 7.5 45.6 37 -6.1 21.1
11:30 1020 30.12 849 25.07 8.3 46.9 35 -6.1 21
11:35 1020 30.12 849 25.07 9.1 48.3 37 -5 23.1
11:40 1020 30.12 849 25.07 9.1 48.4 37 -4.9 23.2
11:45 1020 30.12 849 25.07 8.5 47.2 38 -5.1 22.9
11:50 1020 30.12 849 25.07 8.1 46.5 37 -5.6 21.9
11:55 1020 30.12 849 25.07 8.4 47 37 -5.5 22.2
12:00 1020 30.12 849 25.07 7.5 45.5 39 -5.4 22.3
12:05 1019 30.09 849 25.07 8.1 46.6 37 -5.7 21.7
12:10 1019 30.09 849 25.07 8.8 47.8 35 -5.9 21.4
12:15 1019 30.09 849 25.07 9.3 48.7 35 -5.4 22.3
12:20 1019 30.09 849 25.07 9.2 48.5 37 -4.8 23.3
12:25 1019 30.09 848 25.04 9 48.2 34 -6.1 21
12:30 1019 30.09 848 25.04 10.1 50.1 32 -5.9 21.4
12:35 1019 30.09 848 25.04 10 50 33 -5.4 22.3
12:40 1019 30.09 848 25.04 10.3 50.5 33 -5.4 22.2
12:45 1019 30.09 848 25.04 10.1 50.1 34 -5 23
12:50 1019 30.09 848 25.04 10.1 50.2 32 -5.9 21.3
12:55 1019 30.09 848 25.04 10.8 51.5 30 -5.9 21.4
13:00 1019 30.09 848 25.04 10.3 50.6 32 -5.5 22
13:05 1019 30.09 848 25.04 10.4 50.8 32 -5.7 21.7
13:10 1019 30.09 848 25.04 10.8 51.4 33 -4.9 23.2
13:15 1019 30.09 848 25.04 9.3 48.7 35 -5.5 22.1
13:20 1019 30.09 848 25.04 9.1 48.4 33 -6.1 21
13:25 1019 30.09 848 25.04 10.7 51.3 30 -6 21.1
13:30 1019 30.09 848 25.04 11.5 52.7 31 -5.2 22.7
13:35 1019 30.09 848 25.04 11.9 53.4 30 -5.2 22.6
13:40 1018 30.06 848 25.04 11.4 52.4 30 -5.4 22.3
13:45 1018 30.06 848 25.04 11.8 53.2 29 -5.5 22.1
13:50 1018 30.06 847 25.01 10.7 51.2 32 -5.5 22.1
13:55 1018 30.06 847 25.01 10.3 50.6 31 -6 21.1
14:00 1018 30.06 847 25.01 10.9 51.6 31 -5.6 22
14:05 1018 30.06 847 25.01 11.7 53 28 -6 21.1
14:10 1018 30.06 847 25.01 12 53.7 29 -5.6 22
14:15 1018 30.06 847 25.01 10.8 51.5 33 -4.9 23.1
14:20 1018 30.06 847 25.01 9.8 49.6 33 -5.6 21.8
14:25 1018 30.06 847 25.01 10.2 50.3 32 -5.7 21.7
14:30 1018 30.06 847 25.01 11.9 53.4 29 -5.6 21.9
14:35 1018 30.06 847 25.01 12 53.6 29 -5.4 22.4
14:40 1018 30.06 847 25.01 11.3 52.3 30 -5.4 22.2
14:45 1018 30.06 847 25.01 11.2 52.1 30 -5.6 21.9
14:50 1018 30.06 847 25.01 12 53.5 30 -4.8 23.3
14:55 1018 30.06 847 25.01 12 53.6 30 -5.1 22.8
15:00 1018 30.06 847 25.01 11.4 52.5 32 -4.7 23.5
15:05 1017 30.03 847 25.01 11.5 52.7 30 -5.2 22.6
15:10 1017 30.03 847 25.01 12.2 53.9 30 -4.9 23.2
15:15 1017 30.03 847 25.01 12.7 54.8 28 -5.2 22.6
15:20 1017 30.03 847 25.01 11.5 52.8 32 -4.4 24
15:25 1017 30.03 847 25.01 10.7 51.2 33 -4.8 23.3
15:30 1017 30.03 847 25.01 10.6 51.1 31 -5.9 21.4
15:35 1017 30.03 846 24.98 11.7 53 31 -5 23.1
15:40 1017 30.03 846 24.98 10.5 50.8 32 -5.3 22.4
15:45 1017 30.03 846 24.98 10.6 51.1 32 -5.2 22.6
15:50 1017 30.03 846 24.98 11.5 52.6 31 -4.9 23.2
15:55 1017 30.03 846 24.98 11.6 52.8 30 -5.5 22
16:00 1017 30.03 846 24.98 11.9 53.4 30 -5.1 22.8
16:05 1017 30.03 846 24.98 11.1 52 32 -5.1 22.8
16:10 1017 30.03 846 24.98 11.4 52.6 30 -5.3 22.4
16:15 1017 30.03 846 24.98 12 53.5 30 -4.9 23.2
16:20 1017 30.03 846 24.98 12.8 55 29 -4.6 23.7
16:25 1017 30.03 846 24.98 12.6 54.7 29 -4.9 23.2
16:30 1017 30.03 846 24.98 12.9 55.1 28 -5 23
16:35 1017 30.03 846 24.98 13 55.3 29 -4.8 23.4
16:40 1017 30.03 846 24.98 11.7 53.1 31 -4.7 23.5
16:45 1017 30.03 846 24.98 12 53.5 30 -5 23.1
16:50 1017 30.03 846 24.98 12.4 54.4 29 -5.2 22.6
16:55 1017 30.03 846 24.98 12.5 54.6 30 -4.6 23.7
17:00 1017 30.03 846 24.98 12.3 54.2 31 -4.4 24.1
17:05 1017 30.03 846 24.98 11.9 53.3 31 -4.8 23.4
17:10 1017 30.03 846 24.98 11 51.8 31 -5.3 22.5
17:15 1017 30.03 846 24.98 12 53.6 30 -4.9 23.1
17:20 1017 30.03 846 24.98 12.6 54.6 29 -5.1 22.9
17:25 1017 30.03 846 24.98 12.6 54.8 30 -4.6 23.8
17:30 1017 30.03 846 24.98 12.3 54.1 30 -4.7 23.5
17:35 1017 30.03 846 24.98 11.7 53.1 31 -4.9 23.1
17:40 1017 30.03 846 24.98 11.7 53 31 -4.6 23.7
17:45 1017 30.03 846 24.98 11.4 52.5 32 -4.9 23.2
17:50 1017 30.03 846 24.98 11.9 53.4 30 -4.9 23.1
17:55 1017 30.03 846 24.98 12.1 53.7 31 -4.6 23.8
18:00 1017 30.03 846 24.98 11.9 53.5 31 -4.7 23.5
18:05 1017 30.03 846 24.98 11.9 53.5 31 -4.6 23.8
18:10 1017 30.03 846 24.98 11.9 53.4 30 -4.9 23.2
18:15 1017 30.03 846 24.98 11.1 52.1 33 -4.5 23.9
18:20 1017 30.03 846 24.98 10.3 50.5 34 -4.7 23.5
18:25 1017 30.03 846 24.98 9.8 49.7 37 -4.3 24.3
18:30 1017 30.03 846 24.98 10 50 37 -4.1 24.5
18:35 1017 30.03 846 24.98 10.5 50.8 35 -4.3 24.3
18:40 1017 30.03 846 24.98 10.4 50.7 43 -1.7 28.9
18:45 1017 30.03 846 24.98 9.4 48.9 55 0.8 33.5
18:50 1017 30.03 846 24.98 8.6 47.4 58 0.9 33.5
18:55 1016 30 846 24.98 8.5 47.4 60 1.2 34.1
19:00 1016 30 846 24.98 8 46.4 63 1.4 34.5
19:05 1016 30 846 24.98 7.9 46.1 63 1.4 34.5
19:10 1016 30 846 24.98 7.5 45.6 65 1.3 34.4
19:15 1016 30 846 24.98 7.1 44.8 67 1.4 34.5
19:20 1017 30.03 846 24.98 6.8 44.2 70 1.7 35
19:25 1017 30.03 846 24.98 6.6 43.9 69 1.4 34.5
19:30 1017 30.03 846 24.98 6.4 43.5 70 1.3 34.3
19:35 1017 30.03 846 24.98 6.2 43.2 70 1.1 34
19:40 1017 30.03 846 24.98 6.1 43 69 0.9 33.6
19:45 1017 30.03 846 24.98 5.9 42.7 70 0.8 33.4
19:50 1017 30.03 846 24.98 5.7 42.3 70 0.6 33.1
19:55 1017 30.03 846 24.98 5.7 42.3 66 -0.1 31.8
20:00 1017 30.03 846 24.98 5.8 42.4 68 0.4 32.7
20:05 1017 30.03 846 24.98 5.8 42.4 69 0.6 33.1
20:10 1017 30.03 846 24.98 5.6 42.1 70 0.6 33.1
20:15 1017 30.03 846 24.98 5.5 41.9 70 0.5 32.9
20:20 1017 30.03 846 24.98 5.4 41.7 71 0.6 33
20:25 1017 30.03 846 24.98 5.2 41.4 72 0.6 33.1
20:30 1017 30.03 846 24.98 5.1 41.1 72 0.5 32.9
20:35 1017 30.03 846 24.98 4.9 40.8 72 0.3 32.5
20:40 1017 30.03 846 24.98 4.6 40.3 73 0.1 32.3
20:45 1017 30.03 846 24.98 4.4 40 73 -0 31.9
20:50 1017 30.03 846 24.98 4.3 39.7 73 -0.1 31.7
20:55 1017 30.03 846 24.98 4.3 39.7 72 -0.3 31.5
21:00 1017 30.03 846 24.98 4.4 39.8 70 -0.6 31
21:05 1017 30.03 846 24.98 4.6 40.2 69 -0.6 30.9
21:10 1017 30.03 846 24.98 4.6 40.3 70 -0.4 31.2
21:15 1017 30.03 846 24.98 4.6 40.2 69 -0.6 30.8
21:20 1017 30.03 846 24.98 4.6 40.2 69 -0.6 31
21:25 1017 30.03 846 24.98 4.5 40.1 69 -0.6 31
21:30 1017 30.03 846 24.98 4.6 40.2 69 -0.7 30.7
21:35 1017 30.03 846 24.98 4.8 40.6 68 -0.6 31
21:40 1016 30 846 24.98 4.7 40.4 68 -0.7 30.7
21:45 1016 30 846 24.98 4.7 40.4 67 -0.9 30.3
21:50 1016 30 846 24.98 4.8 40.6 67 -0.8 30.6
21:55 1017 30.03 846 24.98 5 40.9 67 -0.7 30.7
22:00 1017 30.03 846 24.98 4.8 40.6 67 -0.8 30.6
22:05 1016 30 846 24.98 4.6 40.3 68 -0.8 30.6
22:10 1016 30 846 24.98 4.6 40.2 68 -0.8 30.5
22:15 1016 30 846 24.98 4.6 40.2 70 -0.5 31.1
22:20 1016 30 846 24.98 4.5 40.1 70 -0.6 31
22:25 1016 30 846 24.98 4.4 39.9 70 -0.5 31.1
22:30 1016 30 846 24.98 4.5 40.1 68 -0.9 30.4
22:35 1016 30 845 24.95 4.5 40.1 69 -0.7 30.8
22:40 1016 30 845 24.95 4.4 40 69 -0.8 30.6
22:45 1016 30 845 24.95 4.3 39.7 70 -0.6 30.8
22:50 1016 30 845 24.95 4.2 39.6 69 -0.9 30.4
22:55 1016 30 845 24.95 4.3 39.7 70 -0.8 30.6
23:00 1016 30 845 24.95 4.2 39.5 69 -1 30.3
23:05 1016 30 845 24.95 4.2 39.5 69 -1 30.3
23:10 1016 30 845 24.95 4.1 39.3 70 -0.9 30.4
23:15 1016 30 845 24.95 4.1 39.4 69 -1.1 30.1
23:20 1016 30 845 24.95 4 39.2 72 -0.6 31
23:25 1016 30 845 24.95 3.8 38.8 74 -0.5 31.1
23:30 1016 30 845 24.95 3.7 38.6 75 -0.4 31.3
23:35 1016 30 845 24.95 3.6 38.6 72 -0.9 30.4
23:40 1016 30 845 24.95 3.7 38.7 72 -0.9 30.3
23:45 1016 30 845 24.95 3.8 38.9 71 -1 30.2
23:50 1016 30 845 24.95 3.7 38.6 72 -0.9 30.3
23:55 1016 30 845 24.95 3.6 38.4 71 -1.1 30
24:00 1016 30 845 24.95 3.6 38.4 71 -1.3 29.7